createdAt,value
2017-02-05T00:00:33.359Z,993.64
2017-02-05T00:01:33.351Z,993.64
2017-02-05T00:02:33.321Z,993.61
2017-02-05T00:03:33.293Z,993.59
2017-02-05T00:04:33.269Z,993.55
2017-02-05T00:05:33.250Z,993.6
2017-02-05T00:06:33.232Z,993.56
2017-02-05T00:07:33.206Z,993.59
2017-02-05T00:08:33.188Z,993.59
2017-02-05T00:09:33.162Z,993.58
2017-02-05T00:10:33.138Z,993.57
2017-02-05T00:11:33.114Z,993.6
2017-02-05T00:12:33.095Z,993.64
2017-02-05T00:13:33.066Z,993.63
2017-02-05T00:14:33.044Z,993.61
2017-02-05T00:15:33.023Z,993.59
2017-02-05T00:16:33.004Z,993.6
2017-02-05T00:17:32.982Z,993.58
2017-02-05T00:18:32.952Z,993.57
2017-02-05T00:19:32.932Z,993.56
2017-02-05T00:20:32.907Z,993.56
2017-02-05T00:21:32.884Z,993.53
2017-02-05T00:22:32.870Z,993.54
2017-02-05T00:23:32.839Z,993.51
2017-02-05T00:24:32.815Z,993.56
2017-02-05T00:25:32.795Z,993.56
2017-02-05T00:26:32.776Z,993.59
2017-02-05T00:27:32.747Z,993.55
2017-02-05T00:28:32.727Z,993.61
2017-02-05T00:29:32.706Z,993.63
2017-02-05T00:30:32.686Z,993.61
2017-02-05T00:31:32.657Z,993.57
2017-02-05T00:32:32.635Z,993.56
2017-02-05T00:33:32.611Z,993.59
2017-02-05T00:34:32.594Z,993.57
2017-02-05T00:35:32.567Z,993.59
2017-02-05T00:36:32.550Z,993.64
2017-02-05T00:37:32.522Z,993.6
2017-02-05T00:38:32.500Z,993.61
2017-02-05T00:39:32.476Z,993.62
2017-02-05T00:40:32.455Z,993.63
2017-02-05T00:41:32.436Z,993.62
2017-02-05T00:42:32.415Z,993.64
2017-02-05T00:43:32.386Z,993.63
2017-02-05T00:44:32.367Z,993.64
2017-02-05T00:45:32.342Z,993.69
2017-02-05T00:46:32.321Z,993.67
2017-02-05T00:47:32.296Z,993.67
2017-02-05T00:48:32.277Z,993.66
2017-02-05T00:49:32.267Z,993.66
2017-02-05T00:50:32.231Z,993.63
2017-02-05T00:51:32.204Z,993.68
2017-02-05T00:52:32.183Z,993.68
2017-02-05T00:53:32.163Z,993.67
2017-02-05T00:54:32.140Z,993.66
2017-02-05T00:55:32.118Z,993.66
2017-02-05T00:56:32.092Z,993.64
2017-02-05T00:57:32.072Z,993.61
2017-02-05T00:58:32.052Z,993.6
2017-02-05T00:59:32.038Z,993.64
2017-02-05T01:00:32.010Z,993.63
2017-02-05T01:01:31.980Z,993.63
2017-02-05T01:02:31.958Z,993.62
2017-02-05T01:03:31.934Z,993.64
2017-02-05T01:04:31.918Z,993.63
2017-02-05T01:05:31.887Z,993.59
2017-02-05T01:06:31.876Z,993.64
2017-02-05T01:07:31.847Z,993.63
2017-02-05T01:08:31.826Z,993.66
2017-02-05T01:09:31.806Z,993.63
2017-02-05T01:10:31.773Z,993.67
2017-02-05T01:11:31.765Z,993.65
2017-02-05T01:12:31.733Z,993.61
2017-02-05T01:13:31.708Z,993.62
2017-02-05T01:14:31.681Z,993.63
2017-02-05T01:15:31.678Z,993.64
2017-02-05T01:16:31.643Z,993.64
2017-02-05T01:17:31.614Z,993.64
2017-02-05T01:18:31.592Z,993.64
2017-02-05T01:19:31.568Z,993.67
2017-02-05T01:20:31.550Z,993.71
2017-02-05T01:21:31.523Z,993.75
2017-02-05T01:22:31.501Z,993.75
2017-02-05T01:23:31.477Z,993.72
2017-02-05T01:24:31.456Z,993.74
2017-02-05T01:25:31.437Z,993.72
2017-02-05T01:26:31.416Z,993.77
2017-02-05T01:27:31.384Z,993.77
2017-02-05T01:28:31.362Z,993.75
2017-02-05T01:29:31.337Z,993.73
2017-02-05T01:30:31.318Z,993.79
2017-02-05T01:31:31.304Z,993.77
2017-02-05T01:32:31.272Z,993.78
2017-02-05T01:33:31.251Z,993.78
2017-02-05T01:34:31.231Z,993.79
2017-02-05T01:35:31.202Z,993.8
2017-02-05T01:36:31.180Z,993.81
2017-02-05T01:37:31.159Z,993.81
2017-02-05T01:38:31.138Z,993.8
2017-02-05T01:39:31.118Z,993.82
2017-02-05T01:40:31.088Z,993.84
2017-02-05T01:41:31.067Z,993.82
2017-02-05T01:42:31.043Z,993.86
2017-02-05T01:43:31.023Z,993.87
2017-02-05T01:44:31.002Z,993.88
2017-02-05T01:45:30.974Z,993.87
2017-02-05T01:46:30.949Z,993.92
2017-02-05T01:47:30.930Z,993.89
2017-02-05T01:48:30.906Z,993.89
2017-02-05T01:49:30.887Z,993.91
2017-02-05T01:50:30.861Z,993.88
2017-02-05T01:51:30.841Z,993.89
2017-02-05T01:52:30.822Z,993.88
2017-02-05T01:53:30.792Z,993.9
2017-02-05T01:54:30.770Z,993.89
2017-02-05T01:55:30.749Z,993.91
2017-02-05T01:56:30.727Z,993.9
2017-02-05T01:57:30.700Z,993.91
2017-02-05T01:58:30.676Z,993.91
2017-02-05T01:59:30.655Z,993.92
2017-02-05T02:00:30.633Z,993.93
2017-02-05T02:01:30.614Z,993.93
2017-02-05T02:02:30.594Z,993.94
2017-02-05T02:03:30.563Z,993.94
2017-02-05T02:04:30.543Z,993.9
2017-02-05T02:05:30.521Z,993.89
2017-02-05T02:06:30.498Z,993.92
2017-02-05T02:07:30.473Z,993.93
2017-02-05T02:08:30.450Z,993.96
2017-02-05T02:09:30.430Z,993.92
2017-02-05T02:10:30.411Z,993.94
2017-02-05T02:11:30.379Z,993.97
2017-02-05T02:12:30.359Z,993.96
2017-02-05T02:13:30.337Z,993.95
2017-02-05T02:14:30.312Z,994
2017-02-05T02:15:30.295Z,994
2017-02-05T02:16:30.270Z,994
2017-02-05T02:17:30.246Z,993.98
2017-02-05T02:18:30.223Z,993.98
2017-02-05T02:19:30.206Z,993.99
2017-02-05T02:20:30.183Z,994
2017-02-05T02:21:30.158Z,994.02
2017-02-05T02:22:30.131Z,994
2017-02-05T02:23:30.112Z,994
2017-02-05T02:24:30.089Z,993.99
2017-02-05T02:25:30.062Z,994.02
2017-02-05T02:26:30.040Z,993.99
2017-02-05T02:27:30.020Z,993.99
2017-02-05T02:28:30.000Z,994.06
2017-02-05T02:29:29.975Z,994.03
2017-02-05T02:30:29.954Z,994.01
2017-02-05T02:31:29.928Z,994.03
2017-02-05T02:32:29.905Z,994.02
2017-02-05T02:33:29.886Z,994.06
2017-02-05T02:34:29.915Z,994.04
2017-02-05T02:35:29.842Z,994.05
2017-02-05T02:36:29.815Z,994.04
2017-02-05T02:37:29.803Z,994.03
2017-02-05T02:38:29.773Z,994.05
2017-02-05T02:39:29.748Z,994.08
2017-02-05T02:40:29.733Z,994.04
2017-02-05T02:41:29.704Z,994.09
2017-02-05T02:42:29.680Z,994.08
2017-02-05T02:43:29.661Z,994.08
2017-02-05T02:44:29.684Z,994.12
2017-02-05T02:45:29.609Z,994.19
2017-02-05T02:46:29.589Z,994.09
2017-02-05T02:47:29.569Z,994.11
2017-02-05T02:48:29.542Z,994.1
2017-02-05T02:49:29.526Z,994.07
2017-02-05T02:50:29.547Z,994.08
2017-02-05T02:51:29.475Z,994.09
2017-02-05T02:52:29.454Z,994.09
2017-02-05T02:53:29.431Z,994.08
2017-02-05T02:54:29.458Z,994.07
2017-02-05T02:55:29.385Z,994.07
2017-02-05T02:56:29.364Z,994.05
2017-02-05T02:57:29.337Z,994.07
2017-02-05T02:58:29.414Z,994.07
2017-02-05T02:59:29.294Z,994.08
2017-02-05T03:00:29.323Z,994.13
2017-02-05T03:01:29.252Z,994.1
2017-02-05T03:02:29.287Z,994.11
2017-02-05T03:03:29.201Z,994.11
2017-02-05T03:04:29.277Z,994.08
2017-02-05T03:05:29.155Z,994.08
2017-02-05T03:06:29.139Z,994.06
2017-02-05T03:07:29.112Z,994.08
2017-02-05T03:08:29.125Z,994.09
2017-02-05T03:09:29.065Z,994.12
2017-02-05T03:10:29.050Z,994.15
2017-02-05T03:11:29.022Z,994.12
2017-02-05T03:12:29.007Z,994.13
2017-02-05T03:13:28.973Z,994.19
2017-02-05T03:14:29.004Z,994.14
2017-02-05T03:15:28.928Z,994.18
2017-02-05T03:16:28.910Z,994.17
2017-02-05T03:17:28.887Z,994.18
2017-02-05T03:18:28.864Z,994.19
2017-02-05T03:19:28.839Z,994.26
2017-02-05T03:20:28.812Z,994.21
2017-02-05T03:21:28.792Z,994.26
2017-02-05T03:22:28.768Z,994.26
2017-02-05T03:23:28.752Z,994.27
2017-02-05T03:24:28.722Z,994.27
2017-02-05T03:25:28.700Z,994.28
2017-02-05T03:26:28.680Z,994.3
2017-02-05T03:27:28.659Z,994.32
2017-02-05T03:28:28.631Z,994.3
2017-02-05T03:29:28.611Z,994.31
2017-02-05T03:30:28.587Z,994.32
2017-02-05T03:31:28.563Z,994.31
2017-02-05T03:32:28.539Z,994.29
2017-02-05T03:33:28.518Z,994.35
2017-02-05T03:34:28.496Z,994.31
2017-02-05T03:35:28.475Z,994.32
2017-02-05T03:36:28.451Z,994.28
2017-02-05T03:37:28.429Z,994.3
2017-02-05T03:38:28.403Z,994.31
2017-02-05T03:39:28.382Z,994.29
2017-02-05T03:40:28.359Z,994.32
2017-02-05T03:41:28.345Z,994.3
2017-02-05T03:42:28.311Z,994.28
2017-02-05T03:43:28.291Z,994.32
2017-02-05T03:44:28.271Z,994.33
2017-02-05T03:45:28.241Z,994.33
2017-02-05T03:46:28.224Z,994.36
2017-02-05T03:47:28.208Z,994.34
2017-02-05T03:48:28.177Z,994.37
2017-02-05T03:49:28.159Z,994.36
2017-02-05T03:50:28.132Z,994.36
2017-02-05T03:51:28.118Z,994.35
2017-02-05T03:52:28.086Z,994.43
2017-02-05T03:53:28.065Z,994.39
2017-02-05T03:54:28.042Z,994.37
2017-02-05T03:55:28.016Z,994.39
2017-02-05T03:56:27.995Z,994.37
2017-02-05T03:57:27.970Z,994.38
2017-02-05T03:58:27.952Z,994.38
2017-02-05T03:59:27.932Z,994.4
2017-02-05T04:00:27.908Z,994.39
2017-02-05T04:01:27.882Z,994.39
2017-02-05T04:02:27.861Z,994.41
2017-02-05T04:03:27.839Z,994.39
2017-02-05T04:04:27.810Z,994.44
2017-02-05T04:05:27.789Z,994.43
2017-02-05T04:06:27.765Z,994.44
2017-02-05T04:07:27.747Z,994.45
2017-02-05T04:08:27.719Z,994.45
2017-02-05T04:09:27.708Z,994.47
2017-02-05T04:10:27.676Z,994.51
2017-02-05T04:11:27.655Z,994.5
2017-02-05T04:12:27.632Z,994.51
2017-02-05T04:13:27.612Z,994.5
2017-02-05T04:14:27.583Z,994.52
2017-02-05T04:15:27.561Z,994.54
2017-02-05T04:16:27.540Z,994.52
2017-02-05T04:17:27.524Z,994.52
2017-02-05T04:18:27.496Z,994.52
2017-02-05T04:19:27.473Z,994.55
2017-02-05T04:20:27.451Z,994.54
2017-02-05T04:21:27.427Z,994.58
2017-02-05T04:22:27.401Z,994.56
2017-02-05T04:23:27.379Z,994.53
2017-02-05T04:24:27.359Z,994.58
2017-02-05T04:25:27.339Z,994.53
2017-02-05T04:26:27.317Z,994.5
2017-02-05T04:27:27.286Z,994.55
2017-02-05T04:28:27.267Z,994.58
2017-02-05T04:29:27.244Z,994.53
2017-02-05T04:30:27.226Z,994.56
2017-02-05T04:31:27.195Z,994.52
2017-02-05T04:32:27.175Z,994.58
2017-02-05T04:33:27.150Z,994.59
2017-02-05T04:34:27.127Z,994.6
2017-02-05T04:35:27.103Z,994.63
2017-02-05T04:36:27.082Z,994.59
2017-02-05T04:37:27.062Z,994.65
2017-02-05T04:38:27.042Z,994.67
2017-02-05T04:39:27.021Z,994.7
2017-02-05T04:40:26.991Z,994.69
2017-02-05T04:41:26.971Z,994.68
2017-02-05T04:42:26.946Z,994.69
2017-02-05T04:43:26.926Z,994.71
2017-02-05T04:44:26.897Z,994.69
2017-02-05T04:45:26.886Z,994.69
2017-02-05T04:46:26.857Z,994.72
2017-02-05T04:47:26.833Z,994.75
2017-02-05T04:48:26.808Z,994.73
2017-02-05T04:49:26.783Z,994.74
2017-02-05T04:50:26.765Z,994.73
2017-02-05T04:51:26.739Z,994.73
2017-02-05T04:52:26.715Z,994.79
2017-02-05T04:53:26.694Z,994.74
2017-02-05T04:54:26.671Z,994.75
2017-02-05T04:55:26.646Z,994.77
2017-02-05T04:56:26.621Z,994.75
2017-02-05T04:57:26.601Z,994.74
2017-02-05T04:58:26.581Z,994.73
2017-02-05T04:59:26.555Z,994.75
2017-02-05T05:00:26.542Z,994.76
2017-02-05T05:01:26.510Z,994.79
2017-02-05T05:02:26.486Z,994.82
2017-02-05T05:03:26.464Z,994.81
2017-02-05T05:04:26.438Z,994.76
2017-02-05T05:05:26.416Z,994.78
2017-02-05T05:06:26.392Z,994.76
2017-02-05T05:07:26.369Z,994.79
2017-02-05T05:08:26.347Z,994.78
2017-02-05T05:09:26.326Z,994.75
2017-02-05T05:10:26.305Z,994.77
2017-02-05T05:11:26.278Z,994.76
2017-02-05T05:12:26.264Z,994.75
2017-02-05T05:13:26.233Z,994.77
2017-02-05T05:14:26.213Z,994.81
2017-02-05T05:15:26.192Z,994.75
2017-02-05T05:16:26.161Z,994.75
2017-02-05T05:17:26.139Z,994.81
2017-02-05T05:18:26.117Z,994.77
2017-02-05T05:19:26.103Z,994.77
2017-02-05T05:20:26.075Z,994.8
2017-02-05T05:21:26.047Z,994.81
2017-02-05T05:22:26.026Z,994.82
2017-02-05T05:23:26.005Z,994.81
2017-02-05T05:24:25.976Z,994.84
2017-02-05T05:25:26.013Z,994.82
2017-02-05T05:26:25.932Z,994.77
2017-02-05T05:27:25.916Z,994.82
2017-02-05T05:28:25.886Z,994.83
2017-02-05T05:29:25.947Z,994.79
2017-02-05T05:30:25.838Z,994.87
2017-02-05T05:31:25.820Z,994.83
2017-02-05T05:32:25.793Z,994.86
2017-02-05T05:33:25.896Z,994.87
2017-02-05T05:34:25.747Z,994.89
2017-02-05T05:35:25.723Z,994.87
2017-02-05T05:36:25.700Z,994.87
2017-02-05T05:37:25.788Z,994.89
2017-02-05T05:38:25.655Z,994.9
2017-02-05T05:39:25.690Z,994.93
2017-02-05T05:40:25.609Z,994.9
2017-02-05T05:41:25.611Z,994.94
2017-02-05T05:42:25.567Z,994.94
2017-02-05T05:43:25.543Z,994.94
2017-02-05T05:44:25.516Z,994.95
2017-02-05T05:45:25.495Z,995
2017-02-05T05:46:25.474Z,994.98
2017-02-05T05:47:25.448Z,994.98
2017-02-05T05:48:25.424Z,995
2017-02-05T05:49:25.403Z,994.99
2017-02-05T05:50:25.379Z,994.97
2017-02-05T05:51:25.357Z,995
2017-02-05T05:52:25.341Z,994.98
2017-02-05T05:53:25.310Z,994.96
2017-02-05T05:54:25.290Z,994.93
2017-02-05T05:55:25.272Z,994.93
2017-02-05T05:56:25.250Z,994.93
2017-02-05T05:57:25.216Z,994.93
2017-02-05T05:58:25.198Z,994.92
2017-02-05T05:59:25.171Z,994.96
2017-02-05T06:00:25.156Z,994.95
2017-02-05T06:01:25.126Z,994.95
2017-02-05T06:02:25.105Z,994.99
2017-02-05T06:03:25.081Z,994.93
2017-02-05T06:04:25.061Z,994.93
2017-02-05T06:05:25.033Z,994.92
2017-02-05T06:06:25.009Z,994.9
2017-02-05T06:07:24.995Z,994.93
2017-02-05T06:08:24.969Z,994.94
2017-02-05T06:09:24.941Z,994.93
2017-02-05T06:10:24.920Z,994.94
2017-02-05T06:11:24.895Z,994.98
2017-02-05T06:12:24.869Z,994.96
2017-02-05T06:13:24.849Z,994.95
2017-02-05T06:14:24.828Z,994.97
2017-02-05T06:15:24.807Z,994.96
2017-02-05T06:16:24.785Z,994.98
2017-02-05T06:17:24.754Z,994.96
2017-02-05T06:18:24.737Z,994.96
2017-02-05T06:19:24.713Z,995
2017-02-05T06:20:24.694Z,994.98
2017-02-05T06:21:24.672Z,995.01
2017-02-05T06:22:24.642Z,994.98
2017-02-05T06:23:24.619Z,995
2017-02-05T06:24:24.603Z,994.95
2017-02-05T06:25:24.575Z,994.94
2017-02-05T06:26:24.551Z,994.93
2017-02-05T06:27:24.532Z,994.96
2017-02-05T06:28:24.510Z,994.94
2017-02-05T06:29:24.486Z,994.96
2017-02-05T06:30:24.458Z,994.99
2017-02-05T06:31:24.439Z,995.03
2017-02-05T06:32:24.417Z,994.99
2017-02-05T06:33:24.391Z,994.95
2017-02-05T06:34:24.377Z,994.95
2017-02-05T06:35:24.347Z,994.99
2017-02-05T06:36:24.326Z,994.95
2017-02-05T06:37:24.302Z,994.96
2017-02-05T06:38:24.282Z,995.02
2017-02-05T06:39:24.253Z,995
2017-02-05T06:40:24.231Z,995.04
2017-02-05T06:41:24.207Z,995.03
2017-02-05T06:42:24.192Z,995.03
2017-02-05T06:43:24.164Z,995.02
2017-02-05T06:44:24.141Z,994.99
2017-02-05T06:45:24.121Z,994.97
2017-02-05T06:46:24.101Z,995
2017-02-05T06:47:24.073Z,995.01
2017-02-05T06:48:24.049Z,995.03
2017-02-05T06:49:24.028Z,995.05
2017-02-05T06:50:24.003Z,995.02
2017-02-05T06:51:23.985Z,995.04
2017-02-05T06:52:23.955Z,995.05
2017-02-05T06:53:23.935Z,995.04
2017-02-05T06:54:23.917Z,995.01
2017-02-05T06:55:23.893Z,995.02
2017-02-05T06:56:23.874Z,995.02
2017-02-05T06:57:23.844Z,995.02
2017-02-05T06:58:23.826Z,995.04
2017-02-05T06:59:23.797Z,995.04
2017-02-05T07:00:23.822Z,995.02
2017-02-05T07:01:23.751Z,995.06
2017-02-05T07:02:23.732Z,995.03
2017-02-05T07:03:23.712Z,995.07
2017-02-05T07:04:23.686Z,995.03
2017-02-05T07:05:23.661Z,995.01
2017-02-05T07:06:23.648Z,995.03
2017-02-05T07:07:23.621Z,995.01
2017-02-05T07:08:23.592Z,995.01
2017-02-05T07:09:23.569Z,995.05
2017-02-05T07:10:23.543Z,995.08
2017-02-05T07:11:23.520Z,995.08
2017-02-05T07:12:23.549Z,995.07
2017-02-05T07:13:23.482Z,995.07
2017-02-05T07:14:23.457Z,995.09
2017-02-05T07:15:23.442Z,995.1
2017-02-05T07:16:23.413Z,995.1
2017-02-05T07:17:23.387Z,995.14
2017-02-05T07:18:23.364Z,995.11
2017-02-05T07:19:23.339Z,995.11
2017-02-05T07:20:23.419Z,995.13
2017-02-05T07:21:23.291Z,995.09
2017-02-05T07:22:23.271Z,995.13
2017-02-05T07:23:23.249Z,995.15
2017-02-05T07:24:23.231Z,995.13
2017-02-05T07:25:23.205Z,995.17
2017-02-05T07:26:23.181Z,995.19
2017-02-05T07:27:23.154Z,995.19
2017-02-05T07:28:23.136Z,995.14
2017-02-05T07:29:23.108Z,995.13
2017-02-05T07:30:23.090Z,995.19
2017-02-05T07:31:23.062Z,995.21
2017-02-05T07:32:23.045Z,995.22
2017-02-05T07:33:23.017Z,995.24
2017-02-05T07:34:22.995Z,995.28
2017-02-05T07:35:22.976Z,995.24
2017-02-05T07:36:22.955Z,995.26
2017-02-05T07:37:22.924Z,995.26
2017-02-05T07:38:22.901Z,995.26
2017-02-05T07:39:22.883Z,995.28
2017-02-05T07:40:22.859Z,995.28
2017-02-05T07:41:22.834Z,995.33
2017-02-05T07:42:22.811Z,995.33
2017-02-05T07:43:22.784Z,995.35
2017-02-05T07:44:22.761Z,995.34
2017-02-05T07:45:22.741Z,995.36
2017-02-05T07:46:22.718Z,995.35
2017-02-05T07:47:22.700Z,995.37
2017-02-05T07:48:22.679Z,995.36
2017-02-05T07:49:22.649Z,995.38
2017-02-05T07:50:22.625Z,995.4
2017-02-05T07:51:22.604Z,995.41
2017-02-05T07:52:22.577Z,995.39
2017-02-05T07:53:22.558Z,995.43
2017-02-05T07:54:22.537Z,995.45
2017-02-05T07:55:22.507Z,995.46
2017-02-05T07:56:22.484Z,995.48
2017-02-05T07:57:22.465Z,995.47
2017-02-05T07:58:22.445Z,995.45
2017-02-05T07:59:22.424Z,995.46
2017-02-05T08:00:22.393Z,995.39
2017-02-05T08:01:22.373Z,995.4
2017-02-05T08:02:22.350Z,995.4
2017-02-05T08:03:22.334Z,995.41
2017-02-05T08:04:22.303Z,995.37
2017-02-05T08:05:22.282Z,995.44
2017-02-05T08:06:22.261Z,995.43
2017-02-05T08:07:22.261Z,995.41
2017-02-05T08:08:22.208Z,995.41
2017-02-05T08:09:22.188Z,995.44
2017-02-05T08:10:22.161Z,995.43
2017-02-05T08:11:22.147Z,995.43
2017-02-05T08:12:22.118Z,995.41
2017-02-05T08:13:22.095Z,995.44
2017-02-05T08:14:22.075Z,995.42
2017-02-05T08:15:22.051Z,995.43
2017-02-05T08:16:22.023Z,995.42
2017-02-05T08:17:22.003Z,995.46
2017-02-05T08:18:21.984Z,995.44
2017-02-05T08:19:21.959Z,995.47
2017-02-05T08:20:21.932Z,995.45
2017-02-05T08:21:21.911Z,995.5
2017-02-05T08:22:21.891Z,995.48
2017-02-05T08:23:21.864Z,995.43
2017-02-05T08:24:21.840Z,995.46
2017-02-05T08:25:21.817Z,995.47
2017-02-05T08:26:21.800Z,995.47
2017-02-05T08:27:21.771Z,995.47
2017-02-05T08:28:21.755Z,995.54
2017-02-05T08:29:21.737Z,995.51
2017-02-05T08:30:21.703Z,995.53
2017-02-05T08:31:21.683Z,995.52
2017-02-05T08:32:21.653Z,995.55
2017-02-05T08:33:21.636Z,995.54
2017-02-05T08:34:21.610Z,995.54
2017-02-05T08:35:21.594Z,995.57
2017-02-05T08:36:21.564Z,995.61
2017-02-05T08:37:21.544Z,995.59
2017-02-05T08:38:21.518Z,995.61
2017-02-05T08:39:21.494Z,995.62
2017-02-05T08:40:21.471Z,995.66
2017-02-05T08:41:21.451Z,995.67
2017-02-05T08:42:21.429Z,995.66
2017-02-05T08:43:21.410Z,995.69
2017-02-05T08:44:21.389Z,995.69
2017-02-05T08:45:21.357Z,995.69
2017-02-05T08:46:21.335Z,995.67
2017-02-05T08:47:21.317Z,995.65
2017-02-05T08:48:21.294Z,995.64
2017-02-05T08:49:21.266Z,995.65
2017-02-05T08:50:21.244Z,995.68
2017-02-05T08:51:21.229Z,995.7
2017-02-05T08:52:21.212Z,995.7
2017-02-05T08:53:21.174Z,995.7
2017-02-05T08:54:21.154Z,995.73
2017-02-05T08:55:21.134Z,995.72
2017-02-05T08:56:21.104Z,995.71
2017-02-05T08:57:21.081Z,995.79
2017-02-05T08:58:21.062Z,995.77
2017-02-05T08:59:21.038Z,995.79
2017-02-05T09:00:21.015Z,995.79
2017-02-05T09:01:21.000Z,995.83
2017-02-05T09:02:20.970Z,995.81
2017-02-05T09:03:20.946Z,995.83
2017-02-05T09:04:20.928Z,995.82
2017-02-05T09:05:20.903Z,995.81
2017-02-05T09:06:20.878Z,995.81
2017-02-05T09:07:20.855Z,995.79
2017-02-05T09:08:20.834Z,995.83
2017-02-05T09:09:20.814Z,995.8
2017-02-05T09:10:20.785Z,995.77
2017-02-05T09:11:20.764Z,995.74
2017-02-05T09:12:20.740Z,995.8
2017-02-05T09:13:20.721Z,995.81
2017-02-05T09:14:20.695Z,995.81
2017-02-05T09:15:20.673Z,995.81
2017-02-05T09:16:20.650Z,995.81
2017-02-05T09:17:20.633Z,995.78
2017-02-05T09:18:20.611Z,995.8
2017-02-05T09:19:20.580Z,995.81
2017-02-05T09:20:20.557Z,995.83
2017-02-05T09:21:20.538Z,995.84
2017-02-05T09:22:20.517Z,995.83
2017-02-05T09:23:20.498Z,995.82
2017-02-05T09:24:20.467Z,995.81
2017-02-05T09:25:20.446Z,995.81
2017-02-05T09:26:20.422Z,995.79
2017-02-05T09:27:20.397Z,995.77
2017-02-05T09:28:20.384Z,995.79
2017-02-05T09:29:20.355Z,995.79
2017-02-05T09:30:20.336Z,995.78
2017-02-05T09:31:20.314Z,995.83
2017-02-05T09:32:20.287Z,995.81
2017-02-05T09:33:20.264Z,995.81
2017-02-05T09:34:20.240Z,995.81
2017-02-05T09:35:20.222Z,995.8
2017-02-05T09:36:20.201Z,995.77
2017-02-05T09:37:20.174Z,995.79
2017-02-05T09:38:20.150Z,995.86
2017-02-05T09:39:20.129Z,995.83
2017-02-05T09:40:20.108Z,995.84
2017-02-05T09:41:20.189Z,995.84
2017-02-05T09:42:20.061Z,995.84
2017-02-05T09:43:20.092Z,995.84
2017-02-05T09:44:20.016Z,995.86
2017-02-05T09:45:20.045Z,995.89
2017-02-05T09:46:19.968Z,995.9
2017-02-05T09:47:19.953Z,995.9
2017-02-05T09:48:19.927Z,995.89
2017-02-05T09:49:19.904Z,995.88
2017-02-05T09:50:19.894Z,995.82
2017-02-05T09:51:19.925Z,995.9
2017-02-05T09:52:19.839Z,995.87
2017-02-05T09:53:19.910Z,995.87
2017-02-05T09:54:19.789Z,995.91
2017-02-05T09:55:19.768Z,995.89
2017-02-05T09:56:19.743Z,995.92
2017-02-05T09:57:19.723Z,995.91
2017-02-05T09:58:19.698Z,995.87
2017-02-05T09:59:19.679Z,995.89
2017-02-05T10:00:19.661Z,995.89
2017-02-05T10:01:19.637Z,995.9
2017-02-05T10:02:19.609Z,995.88
2017-02-05T10:03:19.596Z,995.88
2017-02-05T10:04:19.568Z,995.88
2017-02-05T10:05:19.553Z,995.92
2017-02-05T10:06:19.521Z,995.97
2017-02-05T10:07:19.497Z,995.99
2017-02-05T10:08:19.476Z,996.01
2017-02-05T10:09:19.457Z,996
2017-02-05T10:10:19.435Z,996.03
2017-02-05T10:11:19.421Z,996.05
2017-02-05T10:12:19.399Z,996.07
2017-02-05T10:13:19.368Z,996.09
2017-02-05T10:14:19.349Z,996.09
2017-02-05T10:15:19.325Z,996.15
2017-02-05T10:16:19.306Z,996.15
2017-02-05T10:17:19.287Z,996.16
2017-02-05T10:18:19.263Z,996.17
2017-02-05T10:19:19.236Z,996.16
2017-02-05T10:20:19.214Z,996.13
2017-02-05T10:21:19.191Z,996.15
2017-02-05T10:22:19.177Z,996.1
2017-02-05T10:23:19.155Z,996.12
2017-02-05T10:24:19.137Z,996.08
2017-02-05T10:25:19.110Z,996.07
2017-02-05T10:26:19.081Z,996.02
2017-02-05T10:27:19.067Z,996.04
2017-02-05T10:28:19.044Z,996.04
2017-02-05T10:29:19.027Z,996
2017-02-05T10:30:19.001Z,996.06
2017-02-05T10:31:18.977Z,996.06
2017-02-05T10:32:18.950Z,996.03
2017-02-05T10:33:18.929Z,996.06
2017-02-05T10:34:18.907Z,996.05
2017-02-05T10:35:18.887Z,996.02
2017-02-05T10:36:18.872Z,996.01
2017-02-05T10:37:18.847Z,996.01
2017-02-05T10:38:18.823Z,996.02
2017-02-05T10:39:18.804Z,996.04
2017-02-05T10:40:18.778Z,996.01
2017-02-05T10:41:18.756Z,996.03
2017-02-05T10:42:18.740Z,996.04
2017-02-05T10:43:18.718Z,996.08
2017-02-05T10:44:18.700Z,996.03
2017-02-05T10:45:18.683Z,996.08
2017-02-05T10:46:18.653Z,996.09
2017-02-05T10:47:18.641Z,996.14
2017-02-05T10:48:18.611Z,996.14
2017-02-05T10:49:18.590Z,996.18
2017-02-05T10:50:18.568Z,996.16
2017-02-05T10:51:18.577Z,996.16
2017-02-05T10:52:18.525Z,996.16
2017-02-05T10:53:18.502Z,996.14
2017-02-05T10:54:18.489Z,996.12
2017-02-05T10:55:18.463Z,996.09
2017-02-05T10:56:18.448Z,996.04
2017-02-05T10:57:18.426Z,996.04
2017-02-05T10:58:18.399Z,996
2017-02-05T10:59:18.380Z,996.02
2017-02-05T11:00:18.364Z,996
2017-02-05T11:01:18.342Z,996
2017-02-05T11:02:18.313Z,996.01
2017-02-05T11:03:18.294Z,996.04
2017-02-05T11:04:18.271Z,996.05
2017-02-05T11:05:18.251Z,996.03
2017-02-05T11:06:18.229Z,996.06
2017-02-05T11:07:18.210Z,996.06
2017-02-05T11:08:18.188Z,996.06
2017-02-05T11:09:18.167Z,996.06
2017-02-05T11:10:18.149Z,996.06
2017-02-05T11:11:18.125Z,996.06
2017-02-05T11:12:18.110Z,996.06
2017-02-05T11:13:18.081Z,996.07
2017-02-05T11:14:18.067Z,996.11
2017-02-05T11:15:18.057Z,996.15
2017-02-05T11:16:18.028Z,996.18
2017-02-05T11:17:18.000Z,996.21
2017-02-05T11:18:17.986Z,996.16
2017-02-05T11:19:17.964Z,996.16
2017-02-05T11:20:17.943Z,996.15
2017-02-05T11:21:17.921Z,996.16
2017-02-05T11:22:17.902Z,996.16
2017-02-05T11:23:17.881Z,996.15
2017-02-05T11:24:17.873Z,996.22
2017-02-05T11:25:17.850Z,996.17
2017-02-05T11:26:17.880Z,996.16
2017-02-05T11:27:17.808Z,996.16
2017-02-05T11:28:17.798Z,996.13
2017-02-05T11:29:17.777Z,996.12
2017-02-05T11:30:17.759Z,996.06
2017-02-05T11:31:17.739Z,996.03
2017-02-05T11:32:17.717Z,996.04
2017-02-05T11:33:17.700Z,995.99
2017-02-05T11:34:17.682Z,995.98
2017-02-05T11:35:17.662Z,995.94
2017-02-05T11:36:17.645Z,995.95
2017-02-05T11:37:17.625Z,995.93
2017-02-05T11:38:17.614Z,995.88
2017-02-05T11:39:17.594Z,995.88
2017-02-05T11:40:17.575Z,995.9
2017-02-05T11:41:17.561Z,995.91
2017-02-05T11:42:17.532Z,995.88
2017-02-05T11:43:17.515Z,995.92
2017-02-05T11:44:17.496Z,995.95
2017-02-05T11:45:17.480Z,995.98
2017-02-05T11:46:17.468Z,995.96
2017-02-05T11:47:17.450Z,995.99
2017-02-05T11:48:17.423Z,995.97
2017-02-05T11:49:17.408Z,996.02
2017-02-05T11:50:17.397Z,996.03
2017-02-05T11:51:17.387Z,996.06
2017-02-05T11:52:17.356Z,996.05
2017-02-05T11:53:17.345Z,996.03
2017-02-05T11:54:17.324Z,996.01
2017-02-05T11:55:17.306Z,996
2017-02-05T11:56:17.288Z,996.11
2017-02-05T11:57:17.271Z,996.12
2017-02-05T11:58:17.253Z,996.14
2017-02-05T11:59:17.236Z,996.12
2017-02-05T12:00:17.221Z,996.1
2017-02-05T12:01:17.202Z,996.19
2017-02-05T12:02:17.203Z,996.17
2017-02-05T12:03:17.173Z,996.23
2017-02-05T12:04:17.147Z,996.23
2017-02-05T12:05:17.138Z,996.25
2017-02-05T12:06:17.163Z,996.26
2017-02-05T12:07:17.100Z,996.24
2017-02-05T12:08:17.085Z,996.24
2017-02-05T12:09:17.068Z,996.23
2017-02-05T12:10:17.047Z,996.25
2017-02-05T12:11:17.027Z,996.21
2017-02-05T12:12:17.014Z,996.19
2017-02-05T12:13:16.995Z,996.14
2017-02-05T12:14:16.975Z,996.12
2017-02-05T12:15:16.959Z,996.08
2017-02-05T12:16:16.945Z,996.08
2017-02-05T12:17:16.926Z,996.04
2017-02-05T12:18:16.912Z,996.1
2017-02-05T12:19:16.892Z,996.1
2017-02-05T12:20:16.872Z,996.13
2017-02-05T12:21:16.853Z,996.09
2017-02-05T12:22:16.832Z,996.15
2017-02-05T12:23:16.819Z,996.15
2017-02-05T12:24:16.799Z,996.13
2017-02-05T12:25:16.779Z,996.11
2017-02-05T12:26:16.768Z,996.16
2017-02-05T12:27:16.746Z,996.2
2017-02-05T12:28:16.724Z,996.17
2017-02-05T12:29:16.712Z,996.17
2017-02-05T12:30:16.697Z,996.15
2017-02-05T12:31:16.676Z,996.18